Etusivu
METAR-TAF:

METAR-TAF

Lentoasemat :

Pago Pago, Yhdysvaltain pienet erillissaaret

Leveyspiiri: 14-20S, Pituuspiiri: 170-43W, korkeus merenpinnasta: 3 m

Tämänhetkinen sää

Tämä raportti tehtiin 18 minuuttia sitten, kello 14.50 UTC
Tuuli 6 kn eri suunnista
Lämpötila 27°C
Kosteus 84%
Ilmanpaine 1012 hPa
Näkyvyys: 16.1 km
Hajanaisia pilviä 1800 ft:n korkeudessa
Hajanaisia pilviä 4000 ft:n korkeudessa
Hajonneita pilviä 11000 ft:n korkeudessa

METAR: NSTU 251450Z VRB06KT 10SM SCT018 SCT040 BKN110 27/24 A2988 RMK SLP117 8/470 T02690236 56014

Aika: 04:08 (15:08 UTC)

Sääennuste

Tämä raportti tehtiin 3 tuntia ja 44 minuuttia sitten, kello 11.24 UTC
Ennuste voimassa 25. päivästä klo 12 UTC - 26. päivään klo 12 UTC
Tuuli 5 kn eri suunnista
Näkyvyys: 10 km
Muutamia pilviä 2000 ft:n korkeudessa
Hajanaisia pilviä 3500 ft:n korkeudessa
sadekuuroja näköpiirissä

TAF: NSTU 251124Z 2512/2612 VRB05KT P6SM VCSH FEW020 SCT035

Säähavainnot ja -ennusteet yli 4000 lentoasemalta (METAR- ja TAF-raportit).

Käytössä olevat sääasemat on merkitty karttaan keltaisilla ja punaisilla pisteillä.

Aseta hiiri pisteen päälle nähdäksesi sääaseman nimen.

Klikkaa sitten nähdäksesi säähavainnot ja -ennusteet.

Kartan vaihtaminen: klikkaa mustalla rastilla varustettuja vihreitä pisteitä, niin voit zoomata sisään; viivalla varustettua vihreää pistettä, niin voit zoomata ulos tai vihreitä nuolia, niin pääset viereisille kartoille.


METAR-TAF: